createdAt,value
2022-11-23T00:00:42.405Z,27.95
2022-11-23T00:03:16.338Z,48.90
2022-11-23T00:05:43.376Z,29.77
2022-11-23T00:08:10.430Z,36.10
2022-11-23T00:10:37.359Z,91.82
2022-11-23T00:13:04.340Z,36.35
2022-11-23T00:15:32.588Z,32.47
2022-11-23T00:18:02.806Z,28.55
2022-11-23T00:20:29.884Z,26.17
2022-11-23T00:22:56.857Z,45.83
2022-11-23T00:25:23.893Z,36.55
2022-11-23T00:27:50.783Z,22.77
2022-11-23T00:30:17.899Z,23.48
2022-11-23T00:32:44.951Z,21.40
2022-11-23T00:35:11.999Z,21.55
2022-11-23T00:37:38.945Z,31.73
2022-11-23T00:40:06.849Z,21.83
2022-11-23T00:42:37.813Z,22.23
2022-11-23T00:45:05.795Z,25.73
2022-11-23T00:47:32.935Z,27.38
2022-11-23T00:49:59.917Z,22.45
2022-11-23T00:52:26.979Z,22.55
2022-11-23T00:54:54.031Z,18.45
2022-11-23T00:57:21.016Z,19.83
2022-11-23T00:59:48.297Z,19.98
2022-11-23T01:02:15.387Z,17.75
2022-11-23T01:04:42.392Z,14.57
2022-11-23T01:07:12.672Z,17.30
2022-11-23T01:09:40.861Z,21.65
2022-11-23T01:12:10.919Z,14.57
2022-11-23T01:14:41.646Z,18.05
2022-11-23T01:17:10.000Z,9.90
2022-11-23T01:19:38.163Z,11.13
2022-11-23T01:22:06.889Z,16.03
2022-11-23T01:24:34.050Z,13.57
2022-11-23T01:27:04.113Z,14.45
2022-11-23T01:29:31.345Z,12.35
2022-11-23T01:32:01.077Z,14.82
2022-11-23T01:34:28.231Z,13.10
2022-11-23T01:36:58.112Z,16.48
2022-11-23T01:41:56.321Z,12.95
2022-11-23T01:44:25.933Z,15.90
2022-11-23T01:47:02.288Z,16.40
2022-11-23T01:49:34.055Z,14.98
2022-11-23T01:52:06.914Z,18.27
2022-11-23T01:55:09.564Z,29.98
2022-11-23T01:57:41.820Z,18.90
2022-11-23T02:00:09.637Z,20.33
2022-11-23T02:02:53.805Z,27.33
2022-11-23T02:05:25.404Z,24.40
2022-11-23T02:07:53.443Z,18.48
2022-11-23T02:10:23.031Z,16.10
2022-11-23T02:12:50.178Z,16.30
2022-11-23T02:15:37.859Z,15.52
2022-11-23T02:18:14.711Z,13.60
2022-11-23T02:20:43.195Z,11.40
2022-11-23T02:23:24.394Z,13.13
2022-11-23T02:26:05.381Z,18.98
2022-11-23T02:28:38.844Z,20.42
2022-11-23T02:31:06.985Z,23.38
2022-11-23T02:33:33.996Z,30.38
2022-11-23T02:36:02.396Z,23.00
2022-11-23T02:38:33.344Z,28.92
2022-11-23T02:41:01.316Z,28.23
2022-11-23T02:43:28.355Z,28.92
2022-11-23T02:46:03.842Z,25.27
2022-11-23T02:48:30.951Z,26.30
2022-11-23T02:50:57.953Z,21.00
2022-11-23T02:53:24.963Z,33.70
2022-11-23T02:55:54.219Z,19.83
2022-11-23T02:58:21.385Z,29.23
2022-11-23T03:00:48.661Z,34.83
2022-11-23T03:03:19.983Z,26.95
2022-11-23T03:05:47.066Z,27.50
2022-11-23T03:08:14.339Z,32.13
2022-11-23T03:10:42.637Z,30.23
2022-11-23T03:13:09.681Z,23.10
2022-11-23T03:15:38.722Z,26.23
2022-11-23T03:18:06.532Z,36.80
2022-11-23T03:20:34.434Z,23.98
2022-11-23T03:23:01.449Z,36.15
2022-11-23T03:25:28.427Z,30.83
2022-11-23T03:27:56.932Z,26.20
2022-11-23T03:30:24.124Z,29.55
2022-11-23T03:32:51.763Z,23.67
2022-11-23T03:35:20.325Z,45.25
2022-11-23T03:38:17.268Z,282.48
2022-11-23T03:40:46.258Z,34.17
2022-11-23T03:43:19.892Z,33.22
2022-11-23T03:45:47.610Z,36.20
2022-11-23T03:48:16.008Z,57.00
2022-11-23T03:50:44.176Z,30.33
2022-11-23T03:53:11.859Z,20.65
2022-11-23T03:55:39.177Z,32.88
2022-11-23T03:58:06.272Z,24.65
2022-11-23T04:00:36.043Z,36.90
2022-11-23T04:03:03.978Z,65.40
2022-11-23T04:05:49.394Z,45.42
2022-11-23T04:08:34.885Z,111.97
2022-11-23T04:11:07.279Z,58.28
2022-11-23T04:13:39.078Z,73.60
2022-11-23T04:16:08.563Z,117.10
2022-11-23T04:18:36.721Z,65.65
2022-11-23T04:21:04.673Z,101.43
2022-11-23T04:23:32.012Z,65.18
2022-11-23T04:25:59.451Z,55.78
2022-11-23T04:28:26.571Z,89.03
2022-11-23T04:30:53.747Z,53.63
2022-11-23T04:33:20.798Z,65.90
2022-11-23T04:35:47.852Z,48.58
2022-11-23T04:38:15.384Z,48.63
2022-11-23T04:40:43.082Z,42.63
2022-11-23T04:43:11.278Z,47.20
2022-11-23T04:45:41.425Z,31.65
2022-11-23T04:48:17.998Z,48.03
2022-11-23T04:50:47.056Z,45.55
2022-11-23T04:53:21.111Z,53.75
2022-11-23T04:55:48.630Z,33.80
2022-11-23T04:58:17.238Z,59.65
2022-11-23T05:00:50.506Z,35.45
2022-11-23T05:03:18.548Z,34.55
2022-11-23T05:05:45.711Z,57.75
2022-11-23T05:08:13.597Z,44.92
2022-11-23T05:11:11.343Z,103.80
2022-11-23T05:13:40.942Z,89.80
2022-11-23T05:16:08.553Z,41.27
2022-11-23T05:21:08.055Z,79.67
2022-11-23T05:23:35.803Z,62.95
2022-11-23T05:26:03.514Z,48.35
2022-11-23T05:28:40.673Z,37.20
2022-11-23T05:31:11.849Z,42.92
2022-11-23T05:33:39.451Z,55.47
2022-11-23T05:36:09.434Z,48.67
2022-11-23T05:38:38.946Z,68.70
2022-11-23T05:41:12.748Z,57.65
2022-11-23T05:46:14.433Z,58.50
2022-11-23T05:48:46.930Z,78.25
2022-11-23T05:51:17.770Z,113.47
2022-11-23T05:53:48.508Z,105.57
2022-11-23T05:56:28.032Z,108.95
2022-11-23T05:59:06.661Z,78.68
2022-11-23T06:01:35.918Z,81.85
2022-11-23T06:04:06.884Z,62.47
2022-11-23T06:06:39.646Z,59.42
2022-11-23T06:09:06.609Z,82.95
2022-11-23T06:11:35.870Z,51.38
2022-11-23T06:14:12.880Z,52.50
2022-11-23T06:16:41.318Z,56.55
2022-11-23T06:19:20.896Z,49.67
2022-11-23T06:21:50.543Z,43.92
2022-11-23T06:24:20.366Z,48.33
2022-11-23T06:26:57.653Z,43.13
2022-11-23T06:29:24.848Z,43.00
2022-11-23T06:31:52.306Z,49.17
2022-11-23T06:34:19.409Z,42.40
2022-11-23T06:36:46.552Z,43.10
2022-11-23T06:39:13.713Z,44.88
2022-11-23T06:41:41.134Z,50.20
2022-11-23T06:44:08.321Z,52.92
2022-11-23T06:46:41.135Z,44.53
2022-11-23T06:49:08.308Z,57.08
2022-11-23T06:51:35.681Z,71.00
2022-11-23T06:54:02.724Z,72.15
2022-11-23T06:56:32.196Z,62.40
2022-11-23T06:58:59.382Z,77.87
2022-11-23T07:01:27.917Z,197.18
2022-11-23T07:04:00.640Z,79.93
2022-11-23T07:06:42.275Z,79.55
2022-11-23T07:09:18.672Z,88.90
2022-11-23T07:12:06.532Z,129.93
2022-11-23T07:14:33.551Z,101.55
2022-11-23T07:17:00.695Z,134.40
2022-11-23T07:19:28.606Z,93.60
2022-11-23T07:21:59.015Z,94.43
2022-11-23T07:24:26.497Z,82.43
2022-11-23T07:26:53.506Z,113.78
2022-11-23T07:29:20.587Z,84.50
2022-11-23T07:31:47.643Z,66.38
2022-11-23T07:34:15.232Z,76.72
2022-11-23T07:36:43.367Z,58.17
2022-11-23T07:39:11.431Z,60.13
2022-11-23T07:41:38.410Z,62.75
2022-11-23T07:44:11.501Z,51.88
2022-11-23T07:46:38.532Z,54.60
2022-11-23T07:49:05.678Z,62.58
2022-11-23T07:51:33.992Z,67.63
2022-11-23T07:54:01.050Z,71.70
2022-11-23T07:56:28.162Z,55.63
2022-11-23T07:58:55.065Z,46.60
2022-11-23T08:01:22.069Z,45.55
2022-11-23T08:03:49.874Z,44.60
2022-11-23T08:06:17.476Z,46.65
2022-11-23T08:08:44.793Z,56.83
2022-11-23T08:11:14.880Z,65.22
2022-11-23T08:13:41.927Z,58.55
2022-11-23T08:16:09.294Z,52.45
2022-11-23T08:18:36.677Z,61.17
2022-11-23T08:21:04.343Z,50.97
2022-11-23T08:23:31.399Z,72.90
2022-11-23T08:25:58.849Z,51.00
2022-11-23T08:28:25.859Z,68.30
2022-11-23T08:30:52.929Z,61.10
2022-11-23T08:33:19.870Z,74.18
2022-11-23T08:35:46.950Z,68.90
2022-11-23T08:38:14.139Z,81.93
2022-11-23T08:40:41.393Z,62.80
2022-11-23T08:43:08.468Z,61.47
2022-11-23T08:45:35.502Z,73.22
2022-11-23T08:48:03.737Z,67.50
2022-11-23T08:50:30.986Z,72.97
2022-11-23T08:52:59.338Z,73.80
2022-11-23T08:55:27.833Z,66.57
2022-11-23T08:57:58.667Z,52.35
2022-11-23T09:00:26.897Z,49.90
2022-11-23T09:02:54.317Z,51.45
2022-11-23T09:05:21.381Z,42.05
2022-11-23T09:07:48.448Z,37.25
2022-11-23T09:10:18.770Z,45.85
2022-11-23T09:12:49.597Z,52.05
2022-11-23T09:15:16.962Z,43.42
2022-11-23T09:17:44.126Z,53.95
2022-11-23T09:20:12.188Z,42.17
2022-11-23T09:22:39.327Z,45.17
2022-11-23T09:25:07.251Z,37.70
2022-11-23T09:27:34.484Z,42.20
2022-11-23T09:30:01.416Z,38.13
2022-11-23T09:32:32.551Z,39.20
2022-11-23T09:34:59.546Z,38.85
2022-11-23T09:37:26.537Z,37.40
2022-11-23T09:39:53.543Z,34.80
2022-11-23T09:42:52.853Z,39.83
2022-11-23T09:45:41.182Z,22.83
2022-11-23T09:48:45.397Z,28.52
2022-11-23T09:51:20.095Z,42.33
2022-11-23T09:53:50.584Z,40.58
2022-11-23T09:56:23.047Z,29.15
2022-11-23T09:58:57.660Z,31.73
2022-11-23T10:01:27.755Z,31.52
2022-11-23T10:03:55.630Z,30.25
2022-11-23T10:06:27.477Z,41.88
2022-11-23T10:09:19.271Z,41.95
2022-11-23T10:11:54.535Z,45.42
2022-11-23T10:14:40.631Z,49.60
2022-11-23T10:17:26.041Z,55.97
2022-11-23T10:20:18.321Z,52.80
2022-11-23T10:22:57.458Z,47.50
2022-11-23T10:25:25.788Z,49.42
2022-11-23T10:27:58.638Z,57.15
2022-11-23T10:30:25.683Z,40.08
2022-11-23T10:33:19.588Z,30.98
2022-11-23T10:35:46.562Z,53.88
2022-11-23T10:38:21.312Z,63.33
2022-11-23T10:41:08.589Z,62.55
2022-11-23T10:43:39.467Z,53.58
2022-11-23T10:46:29.916Z,63.92
2022-11-23T10:51:35.977Z,52.42
2022-11-23T10:54:20.370Z,56.95
2022-11-23T10:56:50.590Z,42.55
2022-11-23T10:59:38.296Z,66.93
2022-11-23T11:02:21.194Z,60.38
2022-11-23T11:04:54.512Z,70.18
2022-11-23T11:07:27.475Z,65.47
2022-11-23T11:09:56.005Z,61.92
2022-11-23T11:12:23.878Z,57.67
2022-11-23T11:15:11.979Z,63.85
2022-11-23T11:17:41.164Z,60.28
2022-11-23T11:20:34.594Z,47.85
2022-11-23T11:23:17.998Z,43.97
2022-11-23T11:25:47.101Z,43.65
2022-11-23T11:28:35.903Z,42.45
2022-11-23T11:31:14.955Z,47.63
2022-11-23T11:33:51.676Z,41.55
2022-11-23T11:36:20.155Z,46.83
2022-11-23T11:39:14.950Z,42.72
2022-11-23T11:41:40.130Z,40.78
2022-11-23T11:44:19.387Z,41.42
2022-11-23T11:46:52.889Z,39.42
2022-11-23T11:49:26.584Z,47.35
2022-11-23T11:52:19.376Z,49.05
2022-11-23T11:54:52.586Z,42.70
2022-11-23T11:57:27.980Z,45.38
2022-11-23T11:59:58.137Z,43.13
2022-11-23T12:02:51.754Z,50.22
2022-11-23T12:05:24.850Z,43.35
2022-11-23T12:08:11.849Z,50.92
2022-11-23T12:10:52.519Z,45.75
2022-11-23T12:13:22.727Z,48.13
2022-11-23T12:16:08.000Z,54.85
2022-11-23T12:19:04.711Z,52.30
2022-11-23T12:21:55.914Z,48.72
2022-11-23T12:24:52.484Z,45.42
2022-11-23T12:27:49.984Z,46.38
2022-11-23T12:30:22.844Z,41.88
2022-11-23T12:33:06.011Z,45.40
2022-11-23T12:35:38.974Z,41.38
2022-11-23T12:38:24.829Z,43.33
2022-11-23T12:41:07.720Z,40.35
2022-11-23T12:44:05.400Z,38.30
2022-11-23T12:46:46.220Z,36.42
2022-11-23T12:49:44.500Z,29.92
2022-11-23T12:52:37.589Z,30.98
2022-11-23T12:55:23.357Z,39.67
2022-11-23T12:57:59.167Z,36.53
2022-11-23T13:00:35.155Z,39.95
2022-11-23T13:03:38.117Z,43.28
2022-11-23T13:06:59.252Z,35.08
2022-11-23T13:09:34.923Z,38.70
2022-11-23T13:12:27.829Z,40.70
2022-11-23T13:15:52.064Z,38.72
2022-11-23T13:18:45.670Z,36.90
2022-11-23T13:21:39.438Z,33.17
2022-11-23T13:24:27.988Z,35.78
2022-11-23T13:27:15.059Z,38.38
2022-11-23T13:29:51.397Z,42.45
2022-11-23T13:32:42.430Z,39.85
2022-11-23T13:35:21.703Z,46.33
2022-11-23T13:37:54.793Z,46.55
2022-11-23T13:40:24.760Z,34.35
2022-11-23T13:42:53.155Z,33.00
2022-11-23T13:45:20.011Z,38.80
2022-11-23T13:48:13.271Z,38.78
2022-11-23T13:50:49.545Z,44.10
2022-11-23T13:53:27.205Z,40.83
2022-11-23T13:55:57.631Z,40.00
2022-11-23T13:58:24.773Z,45.97
2022-11-23T14:00:52.853Z,38.30
2022-11-23T14:03:48.060Z,39.00
2022-11-23T14:06:33.921Z,37.78
2022-11-23T14:09:24.846Z,41.65
2022-11-23T14:11:56.782Z,34.75
2022-11-23T14:14:33.466Z,32.15
2022-11-23T14:17:19.298Z,32.53
2022-11-23T14:20:14.196Z,25.95
2022-11-23T14:23:18.618Z,29.90
2022-11-23T14:26:15.941Z,36.83
2022-11-23T14:28:51.938Z,32.80
2022-11-23T14:31:46.679Z,34.28
2022-11-23T14:34:36.897Z,33.13
2022-11-23T14:37:08.962Z,32.33
2022-11-23T14:39:56.092Z,37.65
2022-11-23T14:42:26.225Z,34.30
2022-11-23T14:44:54.713Z,38.40
2022-11-23T14:47:30.189Z,33.75
2022-11-23T14:49:57.832Z,43.33
2022-11-23T14:52:30.790Z,37.60
2022-11-23T14:55:00.397Z,36.33
2022-11-23T14:57:39.967Z,42.00
2022-11-23T15:00:11.801Z,40.10
2022-11-23T15:02:41.425Z,43.95
2022-11-23T15:05:21.083Z,46.00
2022-11-23T15:08:13.118Z,40.50
2022-11-23T15:10:50.960Z,44.47
2022-11-23T15:13:21.195Z,31.23
2022-11-23T15:18:28.481Z,25.73
2022-11-23T15:20:58.854Z,30.65
2022-11-23T15:23:34.753Z,28.23
2022-11-23T15:26:05.610Z,21.02
2022-11-23T15:28:38.394Z,23.20
2022-11-23T15:31:18.908Z,23.08
2022-11-23T15:33:51.128Z,23.95
2022-11-23T15:36:26.396Z,21.58
2022-11-23T15:38:54.460Z,16.63
2022-11-23T15:41:24.031Z,20.65
2022-11-23T15:44:01.932Z,32.45
2022-11-23T15:46:37.082Z,20.77
2022-11-23T15:49:06.522Z,22.42
2022-11-23T15:51:40.273Z,20.25
2022-11-23T15:54:22.905Z,16.55
2022-11-23T15:56:52.475Z,25.42
2022-11-23T15:59:54.173Z,27.48
2022-11-23T16:02:23.987Z,20.98
2022-11-23T16:05:14.620Z,19.50
2022-11-23T16:07:55.436Z,22.48
2022-11-23T16:10:25.197Z,20.20
2022-11-23T16:12:54.953Z,23.77
2022-11-23T16:15:29.254Z,22.73
2022-11-23T16:17:56.912Z,25.55
2022-11-23T16:20:25.577Z,28.38
2022-11-23T16:22:54.600Z,25.15
2022-11-23T16:25:33.397Z,30.77
2022-11-23T16:28:05.873Z,25.33
2022-11-23T16:30:42.205Z,28.90
2022-11-23T16:33:18.531Z,23.33
2022-11-23T16:35:45.880Z,30.47
2022-11-23T16:38:13.294Z,26.83
2022-11-23T16:40:44.222Z,23.02
2022-11-23T16:43:12.487Z,22.48
2022-11-23T16:45:41.181Z,26.50
2022-11-23T16:48:43.924Z,23.83
2022-11-23T16:51:14.507Z,23.95
2022-11-23T16:54:11.997Z,24.08
2022-11-23T16:56:30.913Z,30.42
2022-11-23T16:58:58.059Z,27.13
2022-11-23T17:01:27.516Z,30.80
2022-11-23T17:03:54.543Z,34.00
2022-11-23T17:06:24.439Z,30.98
2022-11-23T17:08:59.233Z,40.15
2022-11-23T17:11:28.320Z,32.20
2022-11-23T17:13:56.576Z,37.58
2022-11-23T17:16:26.279Z,42.45
2022-11-23T17:18:53.347Z,44.15
2022-11-23T17:21:20.441Z,39.83
2022-11-23T17:23:48.026Z,39.63
2022-11-23T17:26:40.474Z,35.83
2022-11-23T17:29:16.679Z,31.92
2022-11-23T17:31:45.674Z,26.60
2022-11-23T17:34:13.806Z,28.83
2022-11-23T17:36:42.405Z,31.80
2022-11-23T17:39:18.146Z,35.70
2022-11-23T17:41:45.407Z,36.00
2022-11-23T17:44:12.487Z,39.17
2022-11-23T17:46:39.816Z,38.35
2022-11-23T17:49:13.011Z,41.78
2022-11-23T17:51:40.220Z,39.50
2022-11-23T17:54:07.247Z,31.58
2022-11-23T17:56:34.707Z,34.45
2022-11-23T17:59:02.294Z,33.78
2022-11-23T18:01:29.859Z,20.33
2022-11-23T18:03:57.689Z,28.52
2022-11-23T18:06:25.492Z,28.45
2022-11-23T18:08:52.526Z,35.13
2022-11-23T18:11:22.126Z,34.75
2022-11-23T18:13:50.886Z,32.38
2022-11-23T18:16:19.685Z,34.55
2022-11-23T18:18:47.278Z,37.00
2022-11-23T18:21:14.660Z,35.45
2022-11-23T18:23:42.793Z,37.10
2022-11-23T18:26:19.788Z,38.92
2022-11-23T18:28:50.149Z,27.95
2022-11-23T18:31:18.269Z,34.10
2022-11-23T18:33:46.267Z,34.15
2022-11-23T18:36:13.732Z,34.38
2022-11-23T18:38:41.262Z,33.95
2022-11-23T18:41:09.684Z,33.90
2022-11-23T18:43:37.319Z,37.55
2022-11-23T18:46:06.432Z,34.63
2022-11-23T18:48:33.858Z,32.63
2022-11-23T18:51:01.607Z,34.03
2022-11-23T18:53:28.854Z,40.25
2022-11-23T18:56:00.448Z,27.73
2022-11-23T18:58:32.855Z,33.45
2022-11-23T19:01:00.092Z,27.83
2022-11-23T19:03:27.286Z,25.27
2022-11-23T19:06:02.618Z,26.40
2022-11-23T19:08:31.334Z,33.63
2022-11-23T19:11:07.897Z,27.02
2022-11-23T19:13:38.783Z,30.15
2022-11-23T19:16:13.882Z,21.73
2022-11-23T19:18:41.128Z,25.70
2022-11-23T19:21:16.627Z,32.78
2022-11-23T19:23:44.068Z,27.38
2022-11-23T19:26:11.167Z,27.50
2022-11-23T19:28:38.465Z,27.73
2022-11-23T19:31:19.123Z,25.02
2022-11-23T19:33:49.169Z,25.05
2022-11-23T19:36:21.683Z,24.67
2022-11-23T19:38:49.915Z,22.95
2022-11-23T19:41:18.615Z,25.40
2022-11-23T19:43:46.270Z,20.48
2022-11-23T19:46:14.958Z,17.77
2022-11-23T19:48:42.338Z,18.10
2022-11-23T19:51:14.095Z,23.02
2022-11-23T19:53:43.266Z,19.50
2022-11-23T19:56:13.376Z,24.35
2022-11-23T19:58:41.143Z,22.73
2022-11-23T20:01:14.219Z,24.20
2022-11-23T20:03:43.465Z,27.10
2022-11-23T20:06:21.767Z,27.55
2022-11-23T20:08:58.093Z,28.70
2022-11-23T20:11:27.534Z,30.50
2022-11-23T20:13:55.502Z,26.70
2022-11-23T20:16:23.842Z,28.40
2022-11-23T20:19:02.235Z,29.17
2022-11-23T20:21:31.161Z,25.02
2022-11-23T20:24:05.516Z,21.38
2022-11-23T20:26:34.294Z,22.45
2022-11-23T20:29:01.388Z,18.52
2022-11-23T20:31:29.954Z,19.88
2022-11-23T20:33:57.684Z,19.35
2022-11-23T20:36:27.099Z,24.60
2022-11-23T20:38:54.574Z,20.70
2022-11-23T20:41:29.948Z,22.25
2022-11-23T20:44:02.332Z,20.88
2022-11-23T20:46:54.095Z,22.40
2022-11-23T20:49:18.063Z,19.58
2022-11-23T20:51:45.005Z,20.98
2022-11-23T20:54:12.388Z,22.08
2022-11-23T20:56:39.573Z,22.45
2022-11-23T20:59:06.666Z,22.33
2022-11-23T21:01:34.670Z,23.55
2022-11-23T21:04:01.830Z,24.25
2022-11-23T21:06:29.019Z,22.23
2022-11-23T21:08:56.334Z,20.10
2022-11-23T21:11:47.129Z,15.82
2022-11-23T21:14:18.378Z,19.38
2022-11-23T21:16:58.980Z,15.13
2022-11-23T21:19:28.672Z,16.83
2022-11-23T21:21:57.210Z,21.17
2022-11-23T21:24:24.739Z,19.95
2022-11-23T21:26:52.064Z,19.05
2022-11-23T21:29:19.480Z,22.45
2022-11-23T21:31:48.586Z,24.50
2022-11-23T21:34:20.309Z,22.15
2022-11-23T21:36:47.899Z,23.48
2022-11-23T21:39:15.916Z,20.40
2022-11-23T21:41:43.541Z,18.30
2022-11-23T21:44:12.441Z,21.73
2022-11-23T21:46:41.331Z,19.88
2022-11-23T21:49:09.308Z,18.92
2022-11-23T21:51:37.541Z,17.48
2022-11-23T21:54:07.577Z,19.13
2022-11-23T21:56:34.606Z,20.15
2022-11-23T21:59:02.188Z,19.15
2022-11-23T22:01:34.470Z,19.13
2022-11-23T22:04:05.896Z,22.10
2022-11-23T22:06:33.134Z,21.40
2022-11-23T22:09:00.394Z,21.05
2022-11-23T22:11:29.641Z,21.35
2022-11-23T22:14:07.465Z,23.88
2022-11-23T22:16:44.540Z,19.98
2022-11-23T22:19:13.793Z,23.20
2022-11-23T22:21:42.451Z,23.83
2022-11-23T22:24:15.563Z,23.35
2022-11-23T22:26:43.664Z,18.95
2022-11-23T22:29:10.972Z,19.40
2022-11-23T22:31:38.381Z,20.00
2022-11-23T22:34:09.350Z,19.45
2022-11-23T22:36:36.601Z,22.10
2022-11-23T22:39:06.196Z,21.33
2022-11-23T22:41:37.030Z,19.73
2022-11-23T22:44:09.700Z,21.65
2022-11-23T22:46:37.977Z,23.05
2022-11-23T22:49:05.177Z,20.02
2022-11-23T22:51:32.892Z,23.25
2022-11-23T22:54:01.549Z,20.48
2022-11-23T22:56:30.641Z,24.00
2022-11-23T22:58:58.076Z,25.38
2022-11-23T23:01:28.078Z,23.98
2022-11-23T23:03:57.041Z,21.92
2022-11-23T23:06:26.671Z,18.90
2022-11-23T23:08:56.605Z,17.88
2022-11-23T23:11:24.993Z,19.17
2022-11-23T23:13:52.944Z,18.85
2022-11-23T23:16:20.169Z,21.40
2022-11-23T23:18:47.405Z,17.98
2022-11-23T23:21:20.568Z,21.38
2022-11-23T23:23:53.074Z,19.40
2022-11-23T23:26:22.843Z,21.95
2022-11-23T23:28:53.169Z,23.63
2022-11-23T23:31:20.466Z,20.08
2022-11-23T23:33:47.711Z,30.92
2022-11-23T23:36:17.176Z,25.50
2022-11-23T23:38:44.891Z,21.60
2022-11-23T23:41:13.691Z,22.40
2022-11-23T23:43:41.712Z,24.63
2022-11-23T23:46:12.730Z,23.83
2022-11-23T23:48:41.312Z,24.08
2022-11-23T23:51:28.675Z,22.55
2022-11-23T23:53:57.746Z,23.65
2022-11-23T23:56:27.351Z,23.30
2022-11-23T23:58:59.261Z,23.00
